createdAt,value
2022-09-10T00:02:26.806Z,88.70
2022-09-10T00:06:10.596Z,88.80
2022-09-10T00:09:52.875Z,88.90
2022-09-10T00:13:35.447Z,89.10
2022-09-10T00:17:17.291Z,89.20
2022-09-10T00:21:00.728Z,89.30
2022-09-10T00:24:42.653Z,89.40
2022-09-10T00:28:26.815Z,89.50
2022-09-10T00:32:08.623Z,89.60
2022-09-10T00:35:51.500Z,89.70
2022-09-10T00:39:33.553Z,89.80
2022-09-10T00:43:21.257Z,89.80
2022-09-10T00:47:03.626Z,89.80
2022-09-10T00:50:48.660Z,90.00
2022-09-10T00:54:33.779Z,90.00
2022-09-10T00:58:18.453Z,90.00
2022-09-10T01:02:01.113Z,90.00
2022-09-10T01:05:46.107Z,89.80
2022-09-10T01:09:28.955Z,89.60
2022-09-10T01:13:41.688Z,89.60
2022-09-10T01:17:32.062Z,89.70
2022-09-10T01:21:37.537Z,89.90
2022-09-10T01:25:56.905Z,89.80
2022-09-10T01:29:59.605Z,89.70
2022-09-10T01:33:50.585Z,89.90
2022-09-10T01:37:35.751Z,90.10
2022-09-10T01:41:17.789Z,90.30
2022-09-10T01:45:00.161Z,90.40
2022-09-10T01:49:13.966Z,90.30
2022-09-10T01:53:34.313Z,90.30
2022-09-10T01:57:44.428Z,90.40
2022-09-10T02:01:35.963Z,90.30
2022-09-10T02:05:21.793Z,90.50
2022-09-10T02:09:04.245Z,90.60
2022-09-10T02:12:46.284Z,90.70
2022-09-10T02:16:37.935Z,90.80
2022-09-10T02:20:22.169Z,90.80
2022-09-10T02:24:15.215Z,91.00
2022-09-10T02:27:57.460Z,91.20
2022-09-10T02:31:39.830Z,91.40
2022-09-10T02:35:22.075Z,91.20
2022-09-10T02:39:04.971Z,91.20
2022-09-10T02:42:47.979Z,91.30
2022-09-10T02:46:30.264Z,91.60
2022-09-10T02:50:12.104Z,91.40
2022-09-10T02:53:55.751Z,91.40
2022-09-10T02:57:37.556Z,91.50
2022-09-10T03:01:21.838Z,91.90
2022-09-10T03:05:05.038Z,91.70
2022-09-10T03:08:47.555Z,91.90
2022-09-10T03:12:29.463Z,92.00
2022-09-10T03:16:13.261Z,92.20
2022-09-10T03:19:55.096Z,92.20
2022-09-10T03:23:37.540Z,92.20
2022-09-10T03:27:20.774Z,92.20
2022-09-10T03:31:02.766Z,92.20
2022-09-10T03:34:44.552Z,92.30
2022-09-10T03:38:27.809Z,92.30
2022-09-10T03:42:09.940Z,92.40
2022-09-10T03:45:52.371Z,92.40
2022-09-10T03:49:34.230Z,92.40
2022-09-10T03:53:17.843Z,92.40
2022-09-10T03:57:02.628Z,92.40
2022-09-10T04:00:46.202Z,92.40
2022-09-10T04:04:29.418Z,92.40
2022-09-10T04:08:12.564Z,92.40
2022-09-10T04:11:54.472Z,92.40
2022-09-10T04:15:37.621Z,92.30
2022-09-10T04:19:19.433Z,92.40
2022-09-10T04:23:02.977Z,92.30
2022-09-10T04:26:45.107Z,92.40
2022-09-10T04:30:26.942Z,92.60
2022-09-10T04:34:09.002Z,92.50
2022-09-10T04:37:50.817Z,92.60
2022-09-10T04:41:32.925Z,92.70
2022-09-10T04:45:15.203Z,92.60
2022-09-10T04:48:57.692Z,92.90
2022-09-10T04:52:39.583Z,92.70
2022-09-10T04:56:21.521Z,92.70
2022-09-10T05:00:08.799Z,92.80
2022-09-10T05:03:50.581Z,92.80
2022-09-10T05:07:32.484Z,92.90
2022-09-10T05:11:14.297Z,93.00
2022-09-10T05:14:59.987Z,93.00
2022-09-10T05:18:42.106Z,92.80
2022-09-10T05:22:24.030Z,92.70
2022-09-10T05:26:19.946Z,92.70
2022-09-10T05:30:23.104Z,92.60
2022-09-10T05:34:16.789Z,92.70
2022-09-10T05:38:14.711Z,92.70
2022-09-10T05:41:57.373Z,92.60
2022-09-10T05:45:39.203Z,92.60
2022-09-10T05:49:21.067Z,92.50
2022-09-10T05:53:02.890Z,92.50
2022-09-10T05:56:44.991Z,92.40
2022-09-10T06:00:26.834Z,92.40
2022-09-10T06:04:10.314Z,92.60
2022-09-10T06:07:52.301Z,92.70
2022-09-10T06:11:34.236Z,92.90
2022-09-10T06:15:17.883Z,92.70
2022-09-10T06:18:59.931Z,92.60
2022-09-10T06:22:41.748Z,92.60
2022-09-10T06:26:23.791Z,92.70
2022-09-10T06:30:06.265Z,92.80
2022-09-10T06:33:49.071Z,92.70
2022-09-10T06:37:35.003Z,93.00
2022-09-10T06:41:17.514Z,93.40
2022-09-10T06:45:00.208Z,93.30
2022-09-10T06:48:48.473Z,93.30
2022-09-10T06:52:30.448Z,93.40
2022-09-10T06:56:13.557Z,93.40
2022-09-10T06:59:55.452Z,93.30
2022-09-10T07:03:38.016Z,93.30
2022-09-10T07:07:20.251Z,93.40
2022-09-10T07:11:05.044Z,93.40
2022-09-10T07:14:47.449Z,93.50
2022-09-10T07:18:31.036Z,93.50
2022-09-10T07:22:12.864Z,93.70
2022-09-10T07:25:54.685Z,93.60
2022-09-10T07:29:36.498Z,93.60
2022-09-10T07:33:18.464Z,93.60
2022-09-10T07:37:00.311Z,93.30
2022-09-10T07:40:43.933Z,93.30
2022-09-10T07:45:14.364Z,92.90
2022-09-10T08:05:51.718Z,92.20
2022-09-10T08:09:33.629Z,92.00
2022-09-10T08:13:16.914Z,91.50
2022-09-10T08:29:54.510Z,90.70
2022-09-10T08:34:02.942Z,90.30
2022-09-10T08:37:44.900Z,90.00
2022-09-10T08:41:38.722Z,89.30
2022-09-10T08:45:31.707Z,88.10
2022-09-10T08:49:23.501Z,86.80
2022-09-10T08:53:13.280Z,85.40
2022-09-10T08:56:59.283Z,84.00
2022-09-10T09:01:14.624Z,83.60
2022-09-10T09:05:19.890Z,82.40
2022-09-10T09:09:03.749Z,80.90
2022-09-10T09:13:17.425Z,80.40
2022-09-10T09:17:24.408Z,79.30
2022-09-10T09:21:49.179Z,78.10
2022-09-10T09:25:37.858Z,78.40
2022-09-10T09:29:21.408Z,77.40
2022-09-10T09:33:13.819Z,77.30
2022-09-10T09:46:47.600Z,79.30
2022-09-10T09:50:33.556Z,75.40
2022-09-10T09:55:03.174Z,73.40
2022-09-10T09:58:35.394Z,74.50
2022-09-10T10:02:21.608Z,74.30
2022-09-10T10:06:12.743Z,75.00
2022-09-10T10:09:54.720Z,75.70
2022-09-10T10:13:42.443Z,74.30
2022-09-10T10:17:30.315Z,74.40
2022-09-10T10:21:36.857Z,73.30
2022-09-10T10:25:44.951Z,72.60
2022-09-10T10:29:27.708Z,72.00
2022-09-10T10:33:19.308Z,67.80
2022-09-10T10:37:16.821Z,67.50
2022-09-10T10:41:35.906Z,67.70
2022-09-10T10:45:43.061Z,69.10
2022-09-10T10:49:38.179Z,70.10
2022-09-10T10:53:43.728Z,69.40
2022-09-10T10:57:49.714Z,69.10
2022-09-10T11:01:35.432Z,69.90
2022-09-10T11:05:32.760Z,72.90
2022-09-10T11:09:24.911Z,70.90
2022-09-10T11:23:42.691Z,69.30
2022-09-10T11:27:33.253Z,68.70
2022-09-10T11:31:34.179Z,66.90
2022-09-10T11:35:45.275Z,66.40
2022-09-10T11:39:35.217Z,67.20
2022-09-10T11:43:37.476Z,66.70
2022-09-10T11:47:27.470Z,67.80
2022-09-10T11:51:26.453Z,68.20
2022-09-10T11:55:15.977Z,69.30
2022-09-10T11:59:27.338Z,67.70
2022-09-10T12:07:42.895Z,65.30
2022-09-10T12:11:46.808Z,65.90
2022-09-10T12:15:37.222Z,62.70
2022-09-10T12:19:40.015Z,59.80
2022-09-10T12:23:33.695Z,59.50
2022-09-10T12:27:19.364Z,55.50
2022-09-10T12:31:05.307Z,54.50
2022-09-10T12:34:50.143Z,55.30
2022-09-10T12:38:50.356Z,56.40
2022-09-10T12:42:34.367Z,58.80
2022-09-10T12:46:19.839Z,58.00
2022-09-10T12:50:07.025Z,55.70
2022-09-10T12:54:08.876Z,50.10
2022-09-10T12:58:02.647Z,52.90
2022-09-10T13:01:58.211Z,50.30
2022-09-10T13:06:02.575Z,50.20
2022-09-10T13:10:22.428Z,53.30
2022-09-10T13:14:06.260Z,55.00
2022-09-10T13:26:29.126Z,53.60
2022-09-10T13:30:16.404Z,55.20
2022-09-10T13:34:14.798Z,51.00
2022-09-10T13:38:13.236Z,50.60
2022-09-10T13:42:13.587Z,49.00
2022-09-10T13:46:20.142Z,47.20
2022-09-10T13:50:06.627Z,48.00
2022-09-10T13:53:49.681Z,45.80
2022-09-10T13:57:44.073Z,47.10
2022-09-10T14:01:52.060Z,50.40
2022-09-10T14:05:46.973Z,52.40
2022-09-10T14:09:30.385Z,50.30
2022-09-10T14:13:12.212Z,50.80
2022-09-10T14:17:21.307Z,52.00
2022-09-10T14:21:04.513Z,52.40
2022-09-10T14:24:52.780Z,53.50
2022-09-10T14:28:35.648Z,53.80
2022-09-10T14:32:18.147Z,53.10
2022-09-10T14:36:31.254Z,52.40
2022-09-10T14:40:21.808Z,55.20
2022-09-10T14:44:24.054Z,54.50
2022-09-10T14:48:26.065Z,54.40
2022-09-10T14:52:11.385Z,54.00
2022-09-10T14:55:53.379Z,54.20
2022-09-10T14:59:41.501Z,54.80
2022-09-10T15:03:23.295Z,55.40
2022-09-10T15:07:05.220Z,55.30
2022-09-10T15:10:49.911Z,55.10
2022-09-10T15:14:33.459Z,56.10
2022-09-10T15:18:17.408Z,56.20
2022-09-10T15:22:46.027Z,56.10
2022-09-10T15:26:31.885Z,58.40
2022-09-10T15:31:08.427Z,58.30
2022-09-10T15:35:29.427Z,59.10
2022-09-10T15:39:12.990Z,59.60
2022-09-10T15:43:03.376Z,58.40
2022-09-10T15:47:16.876Z,58.10
2022-09-10T15:51:27.117Z,57.80
2022-09-10T15:59:06.332Z,58.20
2022-09-10T16:02:53.209Z,57.70
2022-09-10T16:06:40.584Z,56.90
2022-09-10T16:10:23.159Z,56.60
2022-09-10T16:14:07.186Z,56.20
2022-09-10T16:17:49.011Z,56.80
2022-09-10T16:21:33.862Z,56.40
2022-09-10T16:25:16.301Z,57.30
2022-09-10T16:29:10.955Z,57.20
2022-09-10T16:32:53.807Z,57.60
2022-09-10T16:36:37.141Z,57.70
2022-09-10T16:40:19.349Z,58.40
2022-09-10T16:44:08.979Z,58.20
2022-09-10T16:48:06.959Z,58.70
2022-09-10T16:51:52.325Z,58.70
2022-09-10T16:55:34.288Z,58.90
2022-09-10T16:59:22.856Z,59.70
2022-09-10T17:03:05.156Z,58.90
2022-09-10T17:06:50.040Z,59.00
2022-09-10T17:10:35.949Z,59.40
2022-09-10T17:14:19.306Z,59.20
2022-09-10T17:18:04.637Z,59.30
2022-09-10T17:21:51.334Z,60.40
2022-09-10T17:25:33.499Z,61.70
2022-09-10T17:29:22.531Z,62.10
2022-09-10T17:33:07.192Z,62.40
2022-09-10T17:36:49.230Z,62.70
2022-09-10T17:40:31.032Z,62.70
2022-09-10T17:44:13.637Z,63.20
2022-09-10T17:47:55.724Z,64.00
2022-09-10T17:51:37.554Z,63.00
2022-09-10T17:55:21.181Z,63.60
2022-09-10T17:59:16.505Z,63.60
2022-09-10T18:02:58.350Z,64.70
2022-09-10T18:06:41.070Z,65.60
2022-09-10T18:10:23.111Z,66.20
2022-09-10T18:14:05.609Z,67.10
2022-09-10T18:17:54.607Z,67.50
2022-09-10T18:21:38.167Z,67.70
2022-09-10T18:25:19.997Z,68.00
2022-09-10T18:29:07.888Z,68.50
2022-09-10T18:32:52.095Z,68.80
2022-09-10T18:36:34.806Z,69.30
2022-09-10T18:40:16.734Z,69.60
2022-09-10T18:44:01.215Z,70.10
2022-09-10T18:47:45.215Z,70.50
2022-09-10T18:51:28.997Z,71.00
2022-09-10T18:55:10.878Z,71.90
2022-09-10T18:58:55.940Z,72.40
2022-09-10T19:02:37.808Z,72.90
2022-09-10T19:06:23.154Z,73.30
2022-09-10T19:10:07.105Z,73.60
2022-09-10T19:13:51.570Z,73.60
2022-09-10T19:17:33.468Z,73.90
2022-09-10T19:21:15.263Z,74.40
2022-09-10T19:24:57.089Z,74.70
2022-09-10T19:28:42.169Z,75.00
2022-09-10T19:32:23.940Z,75.30
2022-09-10T19:36:14.451Z,76.40
2022-09-10T19:39:56.917Z,75.90
2022-09-10T19:43:40.515Z,76.00
2022-09-10T19:47:22.551Z,76.20
2022-09-10T19:51:05.543Z,76.50
2022-09-10T19:54:48.019Z,76.70
2022-09-10T19:58:29.843Z,76.80
2022-09-10T20:02:11.751Z,77.00
2022-09-10T20:05:53.559Z,77.20
2022-09-10T20:09:39.711Z,77.20
2022-09-10T20:13:21.783Z,77.50
2022-09-10T20:17:04.893Z,77.90
2022-09-10T20:20:47.518Z,78.30
2022-09-10T20:24:29.285Z,78.50
2022-09-10T20:28:12.517Z,78.80
2022-09-10T20:31:54.297Z,78.90
2022-09-10T20:35:36.105Z,78.80
2022-09-10T20:39:20.739Z,79.30
2022-09-10T20:43:02.503Z,79.30
2022-09-10T20:46:44.914Z,79.70
2022-09-10T20:50:27.475Z,79.90
2022-09-10T20:54:18.216Z,80.00
2022-09-10T20:58:00.015Z,79.60
2022-09-10T21:01:44.440Z,79.60
2022-09-10T21:05:28.235Z,79.50
2022-09-10T21:09:10.194Z,79.80
2022-09-10T21:12:52.770Z,79.60
2022-09-10T21:16:37.111Z,79.40
2022-09-10T21:20:19.631Z,79.20
2022-09-10T21:24:04.192Z,79.20
2022-09-10T21:27:47.283Z,79.10
2022-09-10T21:31:30.558Z,79.40
2022-09-10T21:35:12.514Z,78.70
2022-09-10T21:38:56.862Z,79.40
2022-09-10T21:42:38.667Z,80.00
2022-09-10T21:46:20.658Z,80.00
2022-09-10T21:50:02.812Z,80.80
2022-09-10T21:53:45.320Z,80.30
2022-09-10T21:57:27.534Z,80.40
2022-09-10T22:01:18.872Z,80.30
2022-09-10T22:05:03.727Z,80.20
2022-09-10T22:08:47.823Z,80.20
2022-09-10T22:12:29.620Z,80.40
2022-09-10T22:16:12.787Z,80.60
2022-09-10T22:19:54.784Z,81.00
2022-09-10T22:23:38.460Z,81.30
2022-09-10T22:27:20.568Z,81.50
2022-09-10T22:31:11.148Z,81.50
2022-09-10T22:34:53.069Z,81.70
2022-09-10T22:38:34.879Z,81.80
2022-09-10T22:42:16.892Z,81.80
2022-09-10T22:45:58.795Z,82.00
2022-09-10T22:49:40.579Z,81.90
2022-09-10T22:53:22.404Z,81.20
2022-09-10T22:57:04.535Z,81.40
2022-09-10T23:00:46.393Z,81.00
2022-09-10T23:04:28.352Z,81.20
2022-09-10T23:08:11.164Z,81.40
2022-09-10T23:11:52.964Z,81.60
2022-09-10T23:15:34.922Z,81.90
2022-09-10T23:19:19.592Z,81.70
2022-09-10T23:23:01.425Z,82.20
2022-09-10T23:26:44.307Z,82.40
2022-09-10T23:30:26.188Z,82.80
2022-09-10T23:34:14.239Z,82.90
2022-09-10T23:37:56.035Z,82.80
2022-09-10T23:41:39.272Z,83.00
2022-09-10T23:45:21.376Z,83.10
2022-09-10T23:49:05.583Z,83.10
2022-09-10T23:52:47.347Z,83.50
2022-09-10T23:56:29.904Z,83.90
